Pagrindinis puslapis
METAR-TAF:

METAR-TAF

Oro uostai :

Porto Alegrė, Pietų Rio Grandė, Brazilija

platuma: 30-00S, ilguma: 051-11W, Aukštis: 3 m

Dabartinis oras

Ataskaita buvo paskelbta 49 minutes, ne 08:00 UTC
Vėjas 4 kt iš Šiaurės Vakarų
Temperatūra 9°C
Drėgmė 100%
Slėgis 1022 hPa
Matomumas 10 km arba daugiau
nėra debesų žemiau 1500 m ir nėra kamuolinių lietaus debesų

METAR: SBPA 130800Z 32004KT CAVOK 09/09 Q1022

Laikas: 05:49 (08:49 UTC)

Prognozė

Ataskaita buvo paskelbta 5 valandos ir 49 minutes, ne 03:00 UTC
Prognozė galioja nuo 13 metu 06 UTC su 14 metu 06 UTC
Vėjas kt iš Šiaurės
Matomumas: 9000 m
Tapsmas
nuo 13 metu 09 UTC su 13 metu 11 UTC
Vėjas 5 kt iš Vakarų
Matomumas 10 km arba daugiau
nėra debesų žemiau 1500 m ir nėra kamuolinių lietaus debesų
Tapsmas
nuo 13 metu 13 UTC su 13 metu 15 UTC
Vėjas 8 kt iš Pietų
Tapsmas
nuo 13 metu 19 UTC su 13 metu 21 UTC
Vėjas 7 kt iš Rytų

TAF: SBPA 130300Z 1306/1406 00000KT 9000 NSC TN07/1308Z TX20/1318Z BECMG 1309/1311 28005KT CAVOK BECMG 1313/1315 17008KT BECMG 1319/1321 10007KT RMK PDY

Orai ataskaitas ir orų prognozės (METAR, TAF).

turimą stotys yra geltonos ir raudonos taškus žemėlapyje.

Perkelti pele per norėdami pamatyti stoties vardą.

Tada spustelėkite, norėdami matyti oro stebėjimo ir prognozės.

Norėdami pakeisti žemėlapį: spustelėkite ant žalios mygtukų su juodo kryžiaus žemyn,; žalią mygtuką su brūkšneliu, jei norite nutolinti; arba žalių rodyklių gretimoms žemėlapius.


METAR-TAF: